sensor_id;sensor_type;location;lat;lon;timestamp;P1;durP1;ratioP1;P2;durP2;ratioP2
57029;SDS011;42920;45.306;20.448;2023-04-03T00:00:12;7.90;;;4.88;;
57029;SDS011;42920;45.306;20.448;2023-04-03T00:02:38;9.40;;;5.93;;
57029;SDS011;42920;45.306;20.448;2023-04-03T00:05:05;8.60;;;5.88;;
57029;SDS011;42920;45.306;20.448;2023-04-03T00:07:31;7.63;;;5.97;;
57029;SDS011;42920;45.306;20.448;2023-04-03T00:09:57;8.40;;;5.38;;
57029;SDS011;42920;45.306;20.448;2023-04-03T00:12:23;9.07;;;5.78;;
57029;SDS011;42920;45.306;20.448;2023-04-03T00:14:49;9.30;;;6.43;;
57029;SDS011;42920;45.306;20.448;2023-04-03T00:17:14;9.07;;;6.18;;
57029;SDS011;42920;45.306;20.448;2023-04-03T00:19:40;9.23;;;5.85;;
57029;SDS011;42920;45.306;20.448;2023-04-03T00:22:05;8.43;;;5.50;;
57029;SDS011;42920;45.306;20.448;2023-04-03T00:24:31;8.60;;;5.70;;
57029;SDS011;42920;45.306;20.448;2023-04-03T00:26:57;9.02;;;6.38;;
57029;SDS011;42920;45.306;20.448;2023-04-03T00:29:22;11.23;;;7.70;;
57029;SDS011;42920;45.306;20.448;2023-04-03T00:31:48;12.75;;;9.15;;
57029;SDS011;42920;45.306;20.448;2023-04-03T00:34:14;14.20;;;9.95;;
57029;SDS011;42920;45.306;20.448;2023-04-03T00:36:40;11.00;;;8.13;;
57029;SDS011;42920;45.306;20.448;2023-04-03T00:39:05;13.15;;;9.10;;
57029;SDS011;42920;45.306;20.448;2023-04-03T00:41:31;11.05;;;7.85;;
57029;SDS011;42920;45.306;20.448;2023-04-03T00:43:57;12.57;;;7.47;;
57029;SDS011;42920;45.306;20.448;2023-04-03T00:46:22;17.55;;;8.80;;
57029;SDS011;42920;45.306;20.448;2023-04-03T00:48:48;20.33;;;9.65;;
57029;SDS011;42920;45.306;20.448;2023-04-03T00:51:22;12.00;;;9.48;;
57029;SDS011;42920;45.306;20.448;2023-04-03T00:53:57;10.68;;;8.75;;
57029;SDS011;42920;45.306;20.448;2023-04-03T00:56:26;11.43;;;7.75;;
57029;SDS011;42920;45.306;20.448;2023-04-03T00:58:54;13.77;;;8.60;;
57029;SDS011;42920;45.306;20.448;2023-04-03T01:01:28;10.85;;;8.80;;
57029;SDS011;42920;45.306;20.448;2023-04-03T01:03:55;14.38;;;10.10;;
57029;SDS011;42920;45.306;20.448;2023-04-03T01:06:24;14.18;;;8.70;;
57029;SDS011;42920;45.306;20.448;2023-04-03T01:08:55;11.98;;;8.98;;
57029;SDS011;42920;45.306;20.448;2023-04-03T01:11:21;12.05;;;8.02;;
57029;SDS011;42920;45.306;20.448;2023-04-03T01:13:47;14.20;;;7.80;;
57029;SDS011;42920;45.306;20.448;2023-04-03T01:16:14;11.30;;;6.88;;
57029;SDS011;42920;45.306;20.448;2023-04-03T01:18:40;10.88;;;6.90;;
57029;SDS011;42920;45.306;20.448;2023-04-03T01:21:10;8.57;;;6.63;;
57029;SDS011;42920;45.306;20.448;2023-04-03T01:26:43;11.15;;;6.50;;
57029;SDS011;42920;45.306;20.448;2023-04-03T01:29:10;11.23;;;7.88;;
57029;SDS011;42920;45.306;20.448;2023-04-03T01:31:49;10.57;;;6.85;;
57029;SDS011;42920;45.306;20.448;2023-04-03T01:34:20;11.82;;;7.75;;
57029;SDS011;42920;45.306;20.448;2023-04-03T01:36:46;9.75;;;7.38;;
57029;SDS011;42920;45.306;20.448;2023-04-03T01:39:12;10.93;;;6.97;;
57029;SDS011;42920;45.306;20.448;2023-04-03T01:41:38;11.23;;;6.75;;
57029;SDS011;42920;45.306;20.448;2023-04-03T01:44:04;10.07;;;7.80;;
57029;SDS011;42920;45.306;20.448;2023-04-03T01:46:29;10.27;;;7.72;;
57029;SDS011;42920;45.306;20.448;2023-04-03T01:48:55;11.50;;;7.10;;
57029;SDS011;42920;45.306;20.448;2023-04-03T01:51:21;11.88;;;6.80;;
57029;SDS011;42920;45.306;20.448;2023-04-03T01:53:47;11.52;;;7.28;;
57029;SDS011;42920;45.306;20.448;2023-04-03T01:56:12;10.63;;;7.63;;
57029;SDS011;42920;45.306;20.448;2023-04-03T02:01:03;11.43;;;7.30;;
57029;SDS011;42920;45.306;20.448;2023-04-03T02:03:30;14.93;;;7.40;;
57029;SDS011;42920;45.306;20.448;2023-04-03T02:05:56;11.80;;;7.30;;
57029;SDS011;42920;45.306;20.448;2023-04-03T02:08:22;12.35;;;7.50;;
57029;SDS011;42920;45.306;20.448;2023-04-03T02:10:48;15.18;;;8.18;;
57029;SDS011;42920;45.306;20.448;2023-04-03T02:13:15;11.77;;;8.18;;
57029;SDS011;42920;45.306;20.448;2023-04-03T02:15:41;14.30;;;8.50;;
57029;SDS011;42920;45.306;20.448;2023-04-03T02:18:07;13.35;;;9.43;;
57029;SDS011;42920;45.306;20.448;2023-04-03T02:20:33;18.67;;;9.40;;
57029;SDS011;42920;45.306;20.448;2023-04-03T02:22:59;14.43;;;9.95;;
57029;SDS011;42920;45.306;20.448;2023-04-03T02:25:25;13.15;;;8.93;;
57029;SDS011;42920;45.306;20.448;2023-04-03T02:27:51;15.52;;;9.38;;
57029;SDS011;42920;45.306;20.448;2023-04-03T02:30:16;18.85;;;12.30;;
57029;SDS011;42920;45.306;20.448;2023-04-03T02:32:43;16.90;;;10.75;;
57029;SDS011;42920;45.306;20.448;2023-04-03T02:35:09;18.92;;;11.05;;
57029;SDS011;42920;45.306;20.448;2023-04-03T02:37:36;17.77;;;11.75;;
57029;SDS011;42920;45.306;20.448;2023-04-03T02:40:02;13.32;;;9.52;;
57029;SDS011;42920;45.306;20.448;2023-04-03T02:42:28;18.50;;;10.20;;
57029;SDS011;42920;45.306;20.448;2023-04-03T02:44:54;17.10;;;9.68;;
57029;SDS011;42920;45.306;20.448;2023-04-03T02:47:20;18.38;;;11.55;;
57029;SDS011;42920;45.306;20.448;2023-04-03T02:49:46;16.38;;;9.65;;
57029;SDS011;42920;45.306;20.448;2023-04-03T02:52:12;24.50;;;10.95;;
57029;SDS011;42920;45.306;20.448;2023-04-03T02:54:38;18.15;;;9.98;;
57029;SDS011;42920;45.306;20.448;2023-04-03T02:57:04;20.55;;;10.95;;
57029;SDS011;42920;45.306;20.448;2023-04-03T02:59:30;22.23;;;10.55;;
57029;SDS011;42920;45.306;20.448;2023-04-03T03:01:56;17.83;;;10.13;;
57029;SDS011;42920;45.306;20.448;2023-04-03T03:06:47;17.52;;;7.70;;
57029;SDS011;42920;45.306;20.448;2023-04-03T03:11:39;9.63;;;5.07;;
57029;SDS011;42920;45.306;20.448;2023-04-03T03:16:30;10.32;;;6.25;;
57029;SDS011;42920;45.306;20.448;2023-04-03T03:21:21;11.52;;;6.60;;
57029;SDS011;42920;45.306;20.448;2023-04-03T03:23:47;13.23;;;8.45;;
57029;SDS011;42920;45.306;20.448;2023-04-03T03:28:38;11.20;;;6.78;;
57029;SDS011;42920;45.306;20.448;2023-04-03T03:31:05;11.80;;;6.47;;
57029;SDS011;42920;45.306;20.448;2023-04-03T03:33:32;10.00;;;5.70;;
57029;SDS011;42920;45.306;20.448;2023-04-03T03:35:58;9.32;;;5.38;;
57029;SDS011;42920;45.306;20.448;2023-04-03T03:40:49;6.65;;;4.45;;
57029;SDS011;42920;45.306;20.448;2023-04-03T03:43:16;7.30;;;4.22;;
57029;SDS011;42920;45.306;20.448;2023-04-03T03:45:42;10.57;;;4.15;;
57029;SDS011;42920;45.306;20.448;2023-04-03T03:48:08;9.32;;;4.43;;
57029;SDS011;42920;45.306;20.448;2023-04-03T03:50:34;7.28;;;3.50;;
57029;SDS011;42920;45.306;20.448;2023-04-03T03:53:00;8.23;;;4.68;;
57029;SDS011;42920;45.306;20.448;2023-04-03T03:57:51;6.43;;;4.20;;
57029;SDS011;42920;45.306;20.448;2023-04-03T04:02:43;9.32;;;4.18;;
57029;SDS011;42920;45.306;20.448;2023-04-03T04:07:34;8.20;;;4.50;;
57029;SDS011;42920;45.306;20.448;2023-04-03T04:12:26;8.57;;;5.07;;
57029;SDS011;42920;45.306;20.448;2023-04-03T04:14:51;7.45;;;3.95;;
57029;SDS011;42920;45.306;20.448;2023-04-03T04:19:43;7.00;;;4.30;;
57029;SDS011;42920;45.306;20.448;2023-04-03T04:22:08;7.80;;;4.60;;
57029;SDS011;42920;45.306;20.448;2023-04-03T04:24:34;6.72;;;4.57;;
57029;SDS011;42920;45.306;20.448;2023-04-03T04:29:25;7.60;;;4.90;;
57029;SDS011;42920;45.306;20.448;2023-04-03T04:31:51;7.15;;;4.50;;
57029;SDS011;42920;45.306;20.448;2023-04-03T04:36:42;9.32;;;5.10;;
57029;SDS011;42920;45.306;20.448;2023-04-03T04:39:08;7.90;;;5.32;;
57029;SDS011;42920;45.306;20.448;2023-04-03T04:41:33;8.65;;;5.97;;
57029;SDS011;42920;45.306;20.448;2023-04-03T04:43:59;10.43;;;5.45;;
57029;SDS011;42920;45.306;20.448;2023-04-03T04:46:25;7.65;;;4.80;;
57029;SDS011;42920;45.306;20.448;2023-04-03T04:48:51;14.85;;;5.65;;
57029;SDS011;42920;45.306;20.448;2023-04-03T04:51:17;7.28;;;4.70;;
57029;SDS011;42920;45.306;20.448;2023-04-03T04:56:08;7.80;;;4.68;;
57029;SDS011;42920;45.306;20.448;2023-04-03T04:58:34;8.82;;;4.50;;
57029;SDS011;42920;45.306;20.448;2023-04-03T05:03:30;8.18;;;4.88;;
57029;SDS011;42920;45.306;20.448;2023-04-03T05:05:57;8.38;;;4.90;;
57029;SDS011;42920;45.306;20.448;2023-04-03T05:08:23;11.80;;;5.05;;
57029;SDS011;42920;45.306;20.448;2023-04-03T05:10:49;5.57;;;3.90;;
57029;SDS011;42920;45.306;20.448;2023-04-03T05:13:14;6.35;;;4.13;;
57029;SDS011;42920;45.306;20.448;2023-04-03T05:18:06;6.80;;;4.03;;
57029;SDS011;42920;45.306;20.448;2023-04-03T05:22:58;8.03;;;3.63;;
57029;SDS011;42920;45.306;20.448;2023-04-03T05:25:23;8.38;;;4.35;;
57029;SDS011;42920;45.306;20.448;2023-04-03T05:27:49;6.90;;;4.72;;
57029;SDS011;42920;45.306;20.448;2023-04-03T05:30:15;6.30;;;4.07;;
57029;SDS011;42920;45.306;20.448;2023-04-03T05:32:41;12.63;;;5.28;;
57029;SDS011;42920;45.306;20.448;2023-04-03T05:35:07;11.40;;;4.63;;
57029;SDS011;42920;45.306;20.448;2023-04-03T05:37:34;7.88;;;4.47;;
57029;SDS011;42920;45.306;20.448;2023-04-03T05:40:00;11.25;;;4.88;;
57029;SDS011;42920;45.306;20.448;2023-04-03T05:42:26;8.85;;;4.60;;
57029;SDS011;42920;45.306;20.448;2023-04-03T05:44:51;7.05;;;4.63;;
57029;SDS011;42920;45.306;20.448;2023-04-03T05:49:43;6.22;;;4.00;;
57029;SDS011;42920;45.306;20.448;2023-04-03T05:52:31;6.53;;;4.38;;
57029;SDS011;42920;45.306;20.448;2023-04-03T05:55:01;5.63;;;3.35;;
57029;SDS011;42920;45.306;20.448;2023-04-03T05:57:27;5.07;;;3.20;;
57029;SDS011;42920;45.306;20.448;2023-04-03T05:59:53;5.10;;;3.13;;
57029;SDS011;42920;45.306;20.448;2023-04-03T06:04:48;5.75;;;3.72;;
57029;SDS011;42920;45.306;20.448;2023-04-03T06:07:16;5.93;;;3.60;;
57029;SDS011;42920;45.306;20.448;2023-04-03T06:09:47;5.47;;;3.22;;
57029;SDS011;42920;45.306;20.448;2023-04-03T06:12:14;5.57;;;3.30;;
57029;SDS011;42920;45.306;20.448;2023-04-03T06:14:40;5.13;;;3.10;;
57029;SDS011;42920;45.306;20.448;2023-04-03T06:17:06;5.65;;;3.28;;
57029;SDS011;42920;45.306;20.448;2023-04-03T06:19:33;4.80;;;2.90;;
57029;SDS011;42920;45.306;20.448;2023-04-03T06:21:59;5.25;;;3.28;;
57029;SDS011;42920;45.306;20.448;2023-04-03T06:24:25;5.68;;;3.47;;
57029;SDS011;42920;45.306;20.448;2023-04-03T06:26:51;7.57;;;3.15;;
57029;SDS011;42920;45.306;20.448;2023-04-03T06:29:18;4.65;;;3.15;;
57029;SDS011;42920;45.306;20.448;2023-04-03T06:31:45;5.90;;;3.10;;
57029;SDS011;42920;45.306;20.448;2023-04-03T06:34:11;6.13;;;3.30;;
57029;SDS011;42920;45.306;20.448;2023-04-03T06:36:37;7.25;;;3.55;;
57029;SDS011;42920;45.306;20.448;2023-04-03T06:39:04;5.90;;;3.40;;
57029;SDS011;42920;45.306;20.448;2023-04-03T06:41:30;4.88;;;2.67;;
57029;SDS011;42920;45.306;20.448;2023-04-03T06:43:56;5.97;;;3.42;;
57029;SDS011;42920;45.306;20.448;2023-04-03T06:46:23;4.90;;;3.10;;
57029;SDS011;42920;45.306;20.448;2023-04-03T06:48:50;8.18;;;3.42;;
57029;SDS011;42920;45.306;20.448;2023-04-03T06:53:47;9.90;;;3.65;;
57029;SDS011;42920;45.306;20.448;2023-04-03T06:56:14;6.10;;;3.60;;
57029;SDS011;42920;45.306;20.448;2023-04-03T06:58:40;13.55;;;3.05;;
57029;SDS011;42920;45.306;20.448;2023-04-03T07:01:07;6.30;;;2.67;;
57029;SDS011;42920;45.306;20.448;2023-04-03T07:03:34;5.07;;;2.80;;
57029;SDS011;42920;45.306;20.448;2023-04-03T07:06:01;5.22;;;3.17;;
57029;SDS011;42920;45.306;20.448;2023-04-03T07:08:27;8.27;;;3.78;;
57029;SDS011;42920;45.306;20.448;2023-04-03T07:10:53;6.40;;;3.25;;
57029;SDS011;42920;45.306;20.448;2023-04-03T07:13:19;5.45;;;2.92;;
57029;SDS011;42920;45.306;20.448;2023-04-03T07:18:11;6.68;;;3.40;;
57029;SDS011;42920;45.306;20.448;2023-04-03T07:20:38;8.90;;;4.30;;
57029;SDS011;42920;45.306;20.448;2023-04-03T07:23:03;11.48;;;4.53;;
57029;SDS011;42920;45.306;20.448;2023-04-03T07:25:29;9.65;;;4.85;;
57029;SDS011;42920;45.306;20.448;2023-04-03T07:27:56;7.90;;;3.72;;
57029;SDS011;42920;45.306;20.448;2023-04-03T07:30:22;14.82;;;6.18;;
57029;SDS011;42920;45.306;20.448;2023-04-03T07:35:14;5.03;;;3.05;;
57029;SDS011;42920;45.306;20.448;2023-04-03T07:37:40;7.47;;;3.20;;
57029;SDS011;42920;45.306;20.448;2023-04-03T07:40:06;5.03;;;3.05;;
57029;SDS011;42920;45.306;20.448;2023-04-03T07:42:33;10.10;;;3.05;;
57029;SDS011;42920;45.306;20.448;2023-04-03T07:45:00;7.53;;;3.30;;
57029;SDS011;42920;45.306;20.448;2023-04-03T07:47:26;5.80;;;3.20;;
57029;SDS011;42920;45.306;20.448;2023-04-03T07:49:52;8.95;;;4.40;;
57029;SDS011;42920;45.306;20.448;2023-04-03T07:54:43;9.75;;;3.28;;
57029;SDS011;42920;45.306;20.448;2023-04-03T07:57:09;5.80;;;3.55;;
57029;SDS011;42920;45.306;20.448;2023-04-03T07:59:35;6.50;;;3.75;;
57029;SDS011;42920;45.306;20.448;2023-04-03T08:02:01;7.30;;;3.95;;
57029;SDS011;42920;45.306;20.448;2023-04-03T08:04:29;5.47;;;3.40;;
57029;SDS011;42920;45.306;20.448;2023-04-03T08:06:55;5.47;;;3.03;;
57029;SDS011;42920;45.306;20.448;2023-04-03T08:09:21;5.03;;;2.90;;
57029;SDS011;42920;45.306;20.448;2023-04-03T08:11:47;6.78;;;3.58;;
57029;SDS011;42920;45.306;20.448;2023-04-03T08:16:42;6.32;;;3.28;;
57029;SDS011;42920;45.306;20.448;2023-04-03T08:19:08;9.90;;;3.92;;
57029;SDS011;42920;45.306;20.448;2023-04-03T08:21:35;5.00;;;3.40;;
57029;SDS011;42920;45.306;20.448;2023-04-03T08:24:01;5.00;;;3.08;;
57029;SDS011;42920;45.306;20.448;2023-04-03T08:26:28;4.53;;;2.60;;
57029;SDS011;42920;45.306;20.448;2023-04-03T08:28:54;5.38;;;3.00;;
57029;SDS011;42920;45.306;20.448;2023-04-03T08:31:20;6.18;;;3.30;;
57029;SDS011;42920;45.306;20.448;2023-04-03T08:33:46;4.97;;;3.20;;
57029;SDS011;42920;45.306;20.448;2023-04-03T08:36:16;7.75;;;4.90;;
57029;SDS011;42920;45.306;20.448;2023-04-03T08:38:47;5.63;;;3.13;;
57029;SDS011;42920;45.306;20.448;2023-04-03T08:52:26;5.65;;;3.20;;
57029;SDS011;42920;45.306;20.448;2023-04-03T08:55:14;4.70;;;3.03;;
57029;SDS011;42920;45.306;20.448;2023-04-03T08:57:48;7.10;;;3.60;;
57029;SDS011;42920;45.306;20.448;2023-04-03T09:00:19;10.13;;;3.55;;
57029;SDS011;42920;45.306;20.448;2023-04-03T09:02:48;8.27;;;4.28;;
57029;SDS011;42920;45.306;20.448;2023-04-03T09:07:44;7.40;;;3.40;;
57029;SDS011;42920;45.306;20.448;2023-04-03T09:10:15;6.22;;;3.88;;
57029;SDS011;42920;45.306;20.448;2023-04-03T09:12:48;4.70;;;3.08;;
57029;SDS011;42920;45.306;20.448;2023-04-03T09:15:21;4.03;;;2.78;;
57029;SDS011;42920;45.306;20.448;2023-04-03T09:23:25;7.10;;;3.25;;
57029;SDS011;42920;45.306;20.448;2023-04-03T09:25:53;6.03;;;3.08;;
57029;SDS011;42920;45.306;20.448;2023-04-03T09:28:25;9.18;;;3.30;;
57029;SDS011;42920;45.306;20.448;2023-04-03T09:30:52;4.13;;;2.78;;
57029;SDS011;42920;45.306;20.448;2023-04-03T09:33:18;5.57;;;3.00;;
57029;SDS011;42920;45.306;20.448;2023-04-03T09:35:46;5.22;;;3.25;;
57029;SDS011;42920;45.306;20.448;2023-04-03T09:40:42;4.95;;;3.10;;
57029;SDS011;42920;45.306;20.448;2023-04-03T09:45:50;6.75;;;3.17;;
57029;SDS011;42920;45.306;20.448;2023-04-03T09:48:18;11.85;;;3.22;;
57029;SDS011;42920;45.306;20.448;2023-04-03T09:53:33;4.25;;;2.88;;
57029;SDS011;42920;45.306;20.448;2023-04-03T09:56:01;4.78;;;3.13;;
57029;SDS011;42920;45.306;20.448;2023-04-03T09:58:29;4.50;;;2.83;;
57029;SDS011;42920;45.306;20.448;2023-04-03T10:00:59;6.88;;;3.10;;
57029;SDS011;42920;45.306;20.448;2023-04-03T10:03:30;5.63;;;2.80;;
57029;SDS011;42920;45.306;20.448;2023-04-03T10:05:59;9.82;;;3.38;;
57029;SDS011;42920;45.306;20.448;2023-04-03T10:13:31;6.03;;;3.17;;
57029;SDS011;42920;45.306;20.448;2023-04-03T10:16:00;5.43;;;3.08;;
57029;SDS011;42920;45.306;20.448;2023-04-03T10:18:39;5.38;;;3.22;;
57029;SDS011;42920;45.306;20.448;2023-04-03T10:37:49;6.10;;;3.45;;
57029;SDS011;42920;45.306;20.448;2023-04-03T10:40:25;8.48;;;4.07;;
57029;SDS011;42920;45.306;20.448;2023-04-03T10:48:31;6.10;;;3.08;;
57029;SDS011;42920;45.306;20.448;2023-04-03T10:56:48;4.43;;;3.00;;
57029;SDS011;42920;45.306;20.448;2023-04-03T11:02:22;6.35;;;2.88;;
57029;SDS011;42920;45.306;20.448;2023-04-03T11:04:55;5.03;;;3.17;;
57029;SDS011;42920;45.306;20.448;2023-04-03T11:07:28;6.27;;;3.17;;
57029;SDS011;42920;45.306;20.448;2023-04-03T11:10:00;5.63;;;2.88;;
57029;SDS011;42920;45.306;20.448;2023-04-03T11:15:36;10.25;;;2.92;;
57029;SDS011;42920;45.306;20.448;2023-04-03T11:18:19;7.32;;;3.40;;
57029;SDS011;42920;45.306;20.448;2023-04-03T11:21:14;5.90;;;3.03;;
57029;SDS011;42920;45.306;20.448;2023-04-03T11:23:43;5.05;;;3.50;;
57029;SDS011;42920;45.306;20.448;2023-04-03T11:26:15;4.60;;;2.60;;
57029;SDS011;42920;45.306;20.448;2023-04-03T11:28:40;5.18;;;2.80;;
57029;SDS011;42920;45.306;20.448;2023-04-03T11:31:12;5.80;;;2.50;;
57029;SDS011;42920;45.306;20.448;2023-04-03T11:36:58;6.78;;;3.17;;
57029;SDS011;42920;45.306;20.448;2023-04-03T11:39:29;6.22;;;3.00;;
57029;SDS011;42920;45.306;20.448;2023-04-03T11:42:12;5.22;;;3.20;;
57029;SDS011;42920;45.306;20.448;2023-04-03T11:44:49;5.18;;;3.40;;
57029;SDS011;42920;45.306;20.448;2023-04-03T11:47:43;8.13;;;3.72;;
57029;SDS011;42920;45.306;20.448;2023-04-03T11:53:40;7.93;;;2.90;;
57029;SDS011;42920;45.306;20.448;2023-04-03T11:58:24;4.78;;;2.60;;
57029;SDS011;42920;45.306;20.448;2023-04-03T12:01:02;6.53;;;3.20;;
57029;SDS011;42920;45.306;20.448;2023-04-03T12:14:20;7.88;;;2.58;;
57029;SDS011;42920;45.306;20.448;2023-04-03T12:18:58;7.85;;;3.40;;
57029;SDS011;42920;45.306;20.448;2023-04-03T12:26:40;4.80;;;2.40;;
57029;SDS011;42920;45.306;20.448;2023-04-03T12:29:27;4.03;;;2.55;;
57029;SDS011;42920;45.306;20.448;2023-04-03T12:40:43;5.00;;;2.58;;
57029;SDS011;42920;45.306;20.448;2023-04-03T12:46:13;5.72;;;2.53;;
57029;SDS011;42920;45.306;20.448;2023-04-03T12:51:19;6.80;;;2.40;;
57029;SDS011;42920;45.306;20.448;2023-04-03T12:54:13;3.47;;;2.53;;
57029;SDS011;42920;45.306;20.448;2023-04-03T12:56:49;4.38;;;2.05;;
57029;SDS011;42920;45.306;20.448;2023-04-03T12:59:18;6.07;;;2.60;;
57029;SDS011;42920;45.306;20.448;2023-04-03T13:01:58;5.13;;;2.88;;
57029;SDS011;42920;45.306;20.448;2023-04-03T13:04:29;15.40;;;7.35;;
57029;SDS011;42920;45.306;20.448;2023-04-03T13:06:56;6.35;;;3.03;;
57029;SDS011;42920;45.306;20.448;2023-04-03T13:12:12;7.20;;;3.47;;
57029;SDS011;42920;45.306;20.448;2023-04-03T13:14:40;3.58;;;2.30;;
57029;SDS011;42920;45.306;20.448;2023-04-03T13:17:16;11.57;;;5.22;;
57029;SDS011;42920;45.306;20.448;2023-04-03T13:19:43;10.23;;;3.88;;
57029;SDS011;42920;45.306;20.448;2023-04-03T13:24:52;4.78;;;2.88;;
57029;SDS011;42920;45.306;20.448;2023-04-03T13:27:20;4.05;;;2.15;;
57029;SDS011;42920;45.306;20.448;2023-04-03T13:29:50;7.15;;;3.67;;
57029;SDS011;42920;45.306;20.448;2023-04-03T13:32:19;6.05;;;3.75;;
57029;SDS011;42920;45.306;20.448;2023-04-03T13:34:48;7.13;;;3.35;;
57029;SDS011;42920;45.306;20.448;2023-04-03T13:37:28;8.02;;;5.13;;
57029;SDS011;42920;45.306;20.448;2023-04-03T13:40:17;15.23;;;8.15;;
57029;SDS011;42920;45.306;20.448;2023-04-03T13:42:42;13.98;;;8.57;;
57029;SDS011;42920;45.306;20.448;2023-04-03T13:47:54;4.45;;;2.88;;
57029;SDS011;42920;45.306;20.448;2023-04-03T13:50:41;4.25;;;2.03;;
57029;SDS011;42920;45.306;20.448;2023-04-03T13:53:20;4.65;;;3.00;;
57029;SDS011;42920;45.306;20.448;2023-04-03T13:56:00;5.45;;;2.35;;
57029;SDS011;42920;45.306;20.448;2023-04-03T13:58:35;6.07;;;2.47;;
57029;SDS011;42920;45.306;20.448;2023-04-03T14:01:07;3.30;;;2.00;;
57029;SDS011;42920;45.306;20.448;2023-04-03T14:03:46;4.35;;;3.08;;
57029;SDS011;42920;45.306;20.448;2023-04-03T14:06:14;3.85;;;2.45;;
57029;SDS011;42920;45.306;20.448;2023-04-03T14:08:41;4.95;;;2.30;;
57029;SDS011;42920;45.306;20.448;2023-04-03T14:11:22;9.35;;;2.40;;
57029;SDS011;42920;45.306;20.448;2023-04-03T14:13:53;3.60;;;2.25;;
57029;SDS011;42920;45.306;20.448;2023-04-03T14:16:26;5.13;;;2.22;;
57029;SDS011;42920;45.306;20.448;2023-04-03T14:18:54;6.80;;;3.40;;
57029;SDS011;42920;45.306;20.448;2023-04-03T14:21:20;3.58;;;2.42;;
57029;SDS011;42920;45.306;20.448;2023-04-03T14:23:46;3.55;;;2.17;;
57029;SDS011;42920;45.306;20.448;2023-04-03T14:26:14;3.55;;;2.08;;
57029;SDS011;42920;45.306;20.448;2023-04-03T14:28:43;5.30;;;2.30;;
57029;SDS011;42920;45.306;20.448;2023-04-03T14:31:13;3.83;;;2.20;;
57029;SDS011;42920;45.306;20.448;2023-04-03T14:33:39;4.30;;;2.60;;
57029;SDS011;42920;45.306;20.448;2023-04-03T14:36:11;18.08;;;2.70;;
57029;SDS011;42920;45.306;20.448;2023-04-03T14:38:36;8.88;;;2.17;;
57029;SDS011;42920;45.306;20.448;2023-04-03T14:41:02;3.28;;;2.17;;
57029;SDS011;42920;45.306;20.448;2023-04-03T14:43:28;2.85;;;2.00;;
57029;SDS011;42920;45.306;20.448;2023-04-03T14:45:54;4.25;;;2.58;;
57029;SDS011;42920;45.306;20.448;2023-04-03T14:48:23;4.55;;;2.53;;
57029;SDS011;42920;45.306;20.448;2023-04-03T14:50:51;7.72;;;2.60;;
57029;SDS011;42920;45.306;20.448;2023-04-03T14:53:18;6.13;;;2.80;;
57029;SDS011;42920;45.306;20.448;2023-04-03T14:55:47;5.80;;;3.25;;
57029;SDS011;42920;45.306;20.448;2023-04-03T14:58:15;4.30;;;2.85;;
57029;SDS011;42920;45.306;20.448;2023-04-03T15:00:43;4.65;;;2.63;;
57029;SDS011;42920;45.306;20.448;2023-04-03T15:03:12;4.88;;;2.53;;
57029;SDS011;42920;45.306;20.448;2023-04-03T15:05:39;4.03;;;2.30;;
57029;SDS011;42920;45.306;20.448;2023-04-03T15:08:08;4.82;;;2.90;;
57029;SDS011;42920;45.306;20.448;2023-04-03T15:10:49;3.10;;;1.90;;
57029;SDS011;42920;45.306;20.448;2023-04-03T15:13:18;2.55;;;1.70;;
57029;SDS011;42920;45.306;20.448;2023-04-03T15:15:45;5.20;;;1.92;;
57029;SDS011;42920;45.306;20.448;2023-04-03T15:18:14;4.13;;;2.08;;
57029;SDS011;42920;45.306;20.448;2023-04-03T15:20:42;4.57;;;2.67;;
57029;SDS011;42920;45.306;20.448;2023-04-03T15:23:09;2.50;;;1.50;;
57029;SDS011;42920;45.306;20.448;2023-04-03T15:25:37;3.75;;;1.52;;
57029;SDS011;42920;45.306;20.448;2023-04-03T15:28:03;5.28;;;1.80;;
57029;SDS011;42920;45.306;20.448;2023-04-03T15:30:28;4.53;;;2.47;;
57029;SDS011;42920;45.306;20.448;2023-04-03T15:32:54;4.40;;;2.47;;
57029;SDS011;42920;45.306;20.448;2023-04-03T15:35:20;7.70;;;2.95;;
57029;SDS011;42920;45.306;20.448;2023-04-03T15:37:46;3.53;;;2.00;;
57029;SDS011;42920;45.306;20.448;2023-04-03T15:40:13;3.08;;;1.70;;
57029;SDS011;42920;45.306;20.448;2023-04-03T15:42:39;5.72;;;3.17;;
57029;SDS011;42920;45.306;20.448;2023-04-03T15:45:05;4.57;;;2.95;;
57029;SDS011;42920;45.306;20.448;2023-04-03T15:47:32;3.25;;;1.90;;
57029;SDS011;42920;45.306;20.448;2023-04-03T15:49:57;7.45;;;2.83;;
57029;SDS011;42920;45.306;20.448;2023-04-03T15:52:23;7.78;;;2.30;;
57029;SDS011;42920;45.306;20.448;2023-04-03T15:54:49;7.45;;;2.60;;
57029;SDS011;42920;45.306;20.448;2023-04-03T15:57:15;10.80;;;3.58;;
57029;SDS011;42920;45.306;20.448;2023-04-03T15:59:40;9.98;;;2.47;;
57029;SDS011;42920;45.306;20.448;2023-04-03T16:02:06;6.20;;;2.65;;
57029;SDS011;42920;45.306;20.448;2023-04-03T16:04:37;8.10;;;2.42;;
57029;SDS011;42920;45.306;20.448;2023-04-03T16:07:03;10.25;;;2.67;;
57029;SDS011;42920;45.306;20.448;2023-04-03T16:09:29;10.98;;;2.30;;
57029;SDS011;42920;45.306;20.448;2023-04-03T16:11:56;5.78;;;2.28;;
57029;SDS011;42920;45.306;20.448;2023-04-03T16:14:22;6.45;;;2.58;;
57029;SDS011;42920;45.306;20.448;2023-04-03T16:16:48;7.75;;;1.90;;
57029;SDS011;42920;45.306;20.448;2023-04-03T16:19:13;4.15;;;2.17;;
57029;SDS011;42920;45.306;20.448;2023-04-03T16:21:39;8.15;;;2.60;;
57029;SDS011;42920;45.306;20.448;2023-04-03T16:24:05;10.68;;;3.85;;
57029;SDS011;42920;45.306;20.448;2023-04-03T16:26:31;8.98;;;3.00;;
57029;SDS011;42920;45.306;20.448;2023-04-03T16:28:57;5.93;;;2.58;;
57029;SDS011;42920;45.306;20.448;2023-04-03T16:31:23;7.80;;;4.47;;
57029;SDS011;42920;45.306;20.448;2023-04-03T16:33:50;8.57;;;4.93;;
57029;SDS011;42920;45.306;20.448;2023-04-03T16:36:16;6.82;;;2.58;;
57029;SDS011;42920;45.306;20.448;2023-04-03T16:41:08;4.63;;;2.63;;
57029;SDS011;42920;45.306;20.448;2023-04-03T16:43:33;4.85;;;2.78;;
57029;SDS011;42920;45.306;20.448;2023-04-03T16:46:00;7.60;;;2.92;;
57029;SDS011;42920;45.306;20.448;2023-04-03T16:48:27;4.13;;;2.00;;
57029;SDS011;42920;45.306;20.448;2023-04-03T16:50:53;4.03;;;2.17;;
57029;SDS011;42920;45.306;20.448;2023-04-03T16:53:23;5.90;;;2.53;;
57029;SDS011;42920;45.306;20.448;2023-04-03T16:55:49;3.78;;;1.85;;
57029;SDS011;42920;45.306;20.448;2023-04-03T16:58:15;4.88;;;2.33;;
57029;SDS011;42920;45.306;20.448;2023-04-03T17:00:42;7.25;;;3.13;;
57029;SDS011;42920;45.306;20.448;2023-04-03T17:03:08;5.80;;;2.38;;
57029;SDS011;42920;45.306;20.448;2023-04-03T17:05:33;5.63;;;2.13;;
57029;SDS011;42920;45.306;20.448;2023-04-03T17:10:26;15.88;;;4.28;;
57029;SDS011;42920;45.306;20.448;2023-04-03T17:12:52;16.35;;;5.85;;
57029;SDS011;42920;45.306;20.448;2023-04-03T17:15:18;18.10;;;3.72;;
57029;SDS011;42920;45.306;20.448;2023-04-03T17:17:45;17.80;;;6.32;;
57029;SDS011;42920;45.306;20.448;2023-04-03T17:20:12;13.73;;;6.25;;
57029;SDS011;42920;45.306;20.448;2023-04-03T17:22:38;15.35;;;4.43;;
57029;SDS011;42920;45.306;20.448;2023-04-03T17:25:04;14.48;;;2.78;;
57029;SDS011;42920;45.306;20.448;2023-04-03T17:27:30;8.68;;;2.92;;
57029;SDS011;42920;45.306;20.448;2023-04-03T17:29:56;13.60;;;2.20;;
57029;SDS011;42920;45.306;20.448;2023-04-03T17:32:21;8.07;;;2.40;;
57029;SDS011;42920;45.306;20.448;2023-04-03T17:34:50;5.97;;;1.88;;
57029;SDS011;42920;45.306;20.448;2023-04-03T17:37:15;11.75;;;2.60;;
57029;SDS011;42920;45.306;20.448;2023-04-03T17:42:07;6.65;;;2.00;;